sensor_id;sensor_type;location;lat;lon;timestamp;P1;durP1;ratioP1;P2;durP2;ratioP2
55784;SDS011;41709;52.536;5.688;2023-04-06T00:00:33;10.25;;;5.75;;
55784;SDS011;41709;52.536;5.688;2023-04-06T00:02:59;8.00;;;5.40;;
55784;SDS011;41709;52.536;5.688;2023-04-06T00:05:24;8.38;;;5.15;;
55784;SDS011;41709;52.536;5.688;2023-04-06T00:07:51;9.88;;;6.28;;
55784;SDS011;41709;52.536;5.688;2023-04-06T00:10:17;9.63;;;6.28;;
55784;SDS011;41709;52.536;5.688;2023-04-06T00:12:43;11.07;;;5.18;;
55784;SDS011;41709;52.536;5.688;2023-04-06T00:15:08;12.10;;;6.10;;
55784;SDS011;41709;52.536;5.688;2023-04-06T00:17:35;9.25;;;5.82;;
55784;SDS011;41709;52.536;5.688;2023-04-06T00:20:00;12.30;;;6.20;;
55784;SDS011;41709;52.536;5.688;2023-04-06T00:22:26;9.98;;;5.97;;
55784;SDS011;41709;52.536;5.688;2023-04-06T00:24:51;9.55;;;5.65;;
55784;SDS011;41709;52.536;5.688;2023-04-06T00:27:17;9.50;;;5.40;;
55784;SDS011;41709;52.536;5.688;2023-04-06T00:29:43;12.77;;;5.88;;
55784;SDS011;41709;52.536;5.688;2023-04-06T00:32:09;9.93;;;6.22;;
55784;SDS011;41709;52.536;5.688;2023-04-06T00:34:35;10.95;;;6.15;;
55784;SDS011;41709;52.536;5.688;2023-04-06T00:37:01;11.02;;;6.00;;
55784;SDS011;41709;52.536;5.688;2023-04-06T00:39:26;9.75;;;6.65;;
55784;SDS011;41709;52.536;5.688;2023-04-06T00:41:52;12.07;;;6.30;;
55784;SDS011;41709;52.536;5.688;2023-04-06T00:44:18;10.15;;;7.00;;
55784;SDS011;41709;52.536;5.688;2023-04-06T00:46:45;10.60;;;5.88;;
55784;SDS011;41709;52.536;5.688;2023-04-06T00:49:10;10.85;;;6.10;;
55784;SDS011;41709;52.536;5.688;2023-04-06T00:51:36;11.10;;;6.13;;
55784;SDS011;41709;52.536;5.688;2023-04-06T00:54:02;10.77;;;6.60;;
55784;SDS011;41709;52.536;5.688;2023-04-06T00:56:27;15.82;;;6.93;;
55784;SDS011;41709;52.536;5.688;2023-04-06T00:58:53;13.20;;;6.13;;
55784;SDS011;41709;52.536;5.688;2023-04-06T01:01:19;9.43;;;6.35;;
55784;SDS011;41709;52.536;5.688;2023-04-06T01:03:45;9.55;;;5.97;;
55784;SDS011;41709;52.536;5.688;2023-04-06T01:06:13;9.48;;;6.45;;
55784;SDS011;41709;52.536;5.688;2023-04-06T01:08:39;10.38;;;6.43;;
55784;SDS011;41709;52.536;5.688;2023-04-06T01:11:05;9.73;;;6.38;;
55784;SDS011;41709;52.536;5.688;2023-04-06T01:13:30;9.60;;;6.03;;
55784;SDS011;41709;52.536;5.688;2023-04-06T01:15:56;11.25;;;7.10;;
55784;SDS011;41709;52.536;5.688;2023-04-06T01:18:26;11.60;;;6.43;;
55784;SDS011;41709;52.536;5.688;2023-04-06T01:20:52;11.20;;;6.00;;
55784;SDS011;41709;52.536;5.688;2023-04-06T01:23:18;14.32;;;7.32;;
55784;SDS011;41709;52.536;5.688;2023-04-06T01:25:43;11.75;;;6.13;;
55784;SDS011;41709;52.536;5.688;2023-04-06T01:28:09;10.15;;;6.18;;
55784;SDS011;41709;52.536;5.688;2023-04-06T01:30:35;10.25;;;6.20;;
55784;SDS011;41709;52.536;5.688;2023-04-06T01:33:00;10.45;;;7.15;;
55784;SDS011;41709;52.536;5.688;2023-04-06T01:35:26;12.88;;;6.57;;
55784;SDS011;41709;52.536;5.688;2023-04-06T01:37:53;8.60;;;6.10;;
55784;SDS011;41709;52.536;5.688;2023-04-06T01:40:18;10.93;;;6.80;;
55784;SDS011;41709;52.536;5.688;2023-04-06T01:42:44;12.30;;;6.90;;
55784;SDS011;41709;52.536;5.688;2023-04-06T01:45:10;15.23;;;7.22;;
55784;SDS011;41709;52.536;5.688;2023-04-06T01:47:35;12.52;;;6.97;;
55784;SDS011;41709;52.536;5.688;2023-04-06T01:50:01;12.48;;;6.63;;
55784;SDS011;41709;52.536;5.688;2023-04-06T01:52:30;12.00;;;7.30;;
55784;SDS011;41709;52.536;5.688;2023-04-06T01:54:55;10.27;;;6.65;;
55784;SDS011;41709;52.536;5.688;2023-04-06T01:57:21;10.38;;;6.35;;
55784;SDS011;41709;52.536;5.688;2023-04-06T01:59:46;12.57;;;6.88;;
55784;SDS011;41709;52.536;5.688;2023-04-06T02:02:12;11.50;;;7.22;;
55784;SDS011;41709;52.536;5.688;2023-04-06T02:04:37;12.45;;;7.53;;
55784;SDS011;41709;52.536;5.688;2023-04-06T02:07:03;13.30;;;7.05;;
55784;SDS011;41709;52.536;5.688;2023-04-06T02:09:29;12.60;;;7.55;;
55784;SDS011;41709;52.536;5.688;2023-04-06T02:11:54;14.50;;;7.47;;
55784;SDS011;41709;52.536;5.688;2023-04-06T02:14:20;13.38;;;7.50;;
55784;SDS011;41709;52.536;5.688;2023-04-06T02:16:46;12.40;;;7.65;;
55784;SDS011;41709;52.536;5.688;2023-04-06T02:19:12;11.38;;;7.13;;
55784;SDS011;41709;52.536;5.688;2023-04-06T02:21:37;14.60;;;8.13;;
55784;SDS011;41709;52.536;5.688;2023-04-06T02:24:03;10.45;;;7.30;;
55784;SDS011;41709;52.536;5.688;2023-04-06T02:26:28;16.23;;;6.70;;
55784;SDS011;41709;52.536;5.688;2023-04-06T02:28:54;12.60;;;7.15;;
55784;SDS011;41709;52.536;5.688;2023-04-06T02:31:20;14.25;;;7.53;;
55784;SDS011;41709;52.536;5.688;2023-04-06T02:33:45;12.68;;;7.60;;
55784;SDS011;41709;52.536;5.688;2023-04-06T02:36:11;16.80;;;8.25;;
55784;SDS011;41709;52.536;5.688;2023-04-06T02:38:36;11.60;;;7.28;;
55784;SDS011;41709;52.536;5.688;2023-04-06T02:41:02;12.10;;;8.32;;
55784;SDS011;41709;52.536;5.688;2023-04-06T02:43:27;11.68;;;7.68;;
55784;SDS011;41709;52.536;5.688;2023-04-06T02:45:53;12.80;;;8.18;;
55784;SDS011;41709;52.536;5.688;2023-04-06T02:48:18;14.57;;;8.23;;
55784;SDS011;41709;52.536;5.688;2023-04-06T02:50:44;13.57;;;7.85;;
55784;SDS011;41709;52.536;5.688;2023-04-06T02:53:09;13.38;;;8.25;;
55784;SDS011;41709;52.536;5.688;2023-04-06T02:55:35;13.20;;;8.00;;
55784;SDS011;41709;52.536;5.688;2023-04-06T02:58:01;13.23;;;7.50;;
55784;SDS011;41709;52.536;5.688;2023-04-06T03:00:26;11.75;;;8.02;;
55784;SDS011;41709;52.536;5.688;2023-04-06T03:02:52;14.63;;;7.93;;
55784;SDS011;41709;52.536;5.688;2023-04-06T03:05:17;14.65;;;7.20;;
55784;SDS011;41709;52.536;5.688;2023-04-06T03:07:43;14.18;;;7.80;;
55784;SDS011;41709;52.536;5.688;2023-04-06T03:10:09;11.48;;;7.70;;
55784;SDS011;41709;52.536;5.688;2023-04-06T03:12:35;12.57;;;7.95;;
55784;SDS011;41709;52.536;5.688;2023-04-06T03:15:00;10.07;;;7.53;;
55784;SDS011;41709;52.536;5.688;2023-04-06T03:17:26;14.05;;;7.53;;
55784;SDS011;41709;52.536;5.688;2023-04-06T03:19:51;11.45;;;7.65;;
55784;SDS011;41709;52.536;5.688;2023-04-06T03:22:17;13.73;;;8.07;;
55784;SDS011;41709;52.536;5.688;2023-04-06T03:24:42;14.73;;;7.85;;
55784;SDS011;41709;52.536;5.688;2023-04-06T03:27:08;13.85;;;7.63;;
55784;SDS011;41709;52.536;5.688;2023-04-06T03:29:34;12.43;;;7.45;;
55784;SDS011;41709;52.536;5.688;2023-04-06T03:32:00;12.25;;;7.57;;
55784;SDS011;41709;52.536;5.688;2023-04-06T03:34:26;14.52;;;8.25;;
55784;SDS011;41709;52.536;5.688;2023-04-06T03:36:51;14.35;;;7.40;;
55784;SDS011;41709;52.536;5.688;2023-04-06T03:39:17;12.75;;;7.53;;
55784;SDS011;41709;52.536;5.688;2023-04-06T03:41:43;12.80;;;7.95;;
55784;SDS011;41709;52.536;5.688;2023-04-06T03:44:09;14.02;;;8.43;;
55784;SDS011;41709;52.536;5.688;2023-04-06T03:46:35;14.23;;;8.23;;
55784;SDS011;41709;52.536;5.688;2023-04-06T03:49:00;12.05;;;8.23;;
55784;SDS011;41709;52.536;5.688;2023-04-06T03:51:27;11.50;;;7.65;;
55784;SDS011;41709;52.536;5.688;2023-04-06T03:53:52;12.48;;;7.65;;
55784;SDS011;41709;52.536;5.688;2023-04-06T03:56:18;12.32;;;7.88;;
55784;SDS011;41709;52.536;5.688;2023-04-06T03:58:44;13.77;;;7.55;;
55784;SDS011;41709;52.536;5.688;2023-04-06T04:01:10;15.60;;;8.15;;
55784;SDS011;41709;52.536;5.688;2023-04-06T04:03:36;15.35;;;8.43;;
55784;SDS011;41709;52.536;5.688;2023-04-06T04:06:01;13.57;;;8.00;;
55784;SDS011;41709;52.536;5.688;2023-04-06T04:08:27;12.13;;;7.45;;
55784;SDS011;41709;52.536;5.688;2023-04-06T04:10:52;13.18;;;8.13;;
55784;SDS011;41709;52.536;5.688;2023-04-06T04:13:18;12.25;;;7.60;;
55784;SDS011;41709;52.536;5.688;2023-04-06T04:15:44;12.88;;;7.75;;
55784;SDS011;41709;52.536;5.688;2023-04-06T04:18:09;15.50;;;8.32;;
55784;SDS011;41709;52.536;5.688;2023-04-06T04:20:35;11.77;;;7.88;;
55784;SDS011;41709;52.536;5.688;2023-04-06T04:23:01;14.75;;;8.43;;
55784;SDS011;41709;52.536;5.688;2023-04-06T04:25:26;13.45;;;7.35;;
55784;SDS011;41709;52.536;5.688;2023-04-06T04:27:52;16.63;;;8.68;;
55784;SDS011;41709;52.536;5.688;2023-04-06T04:30:17;14.73;;;7.85;;
55784;SDS011;41709;52.536;5.688;2023-04-06T04:32:43;14.52;;;8.15;;
55784;SDS011;41709;52.536;5.688;2023-04-06T04:35:08;12.02;;;7.80;;
55784;SDS011;41709;52.536;5.688;2023-04-06T04:37:34;15.10;;;7.70;;
55784;SDS011;41709;52.536;5.688;2023-04-06T04:40:00;14.23;;;8.40;;
55784;SDS011;41709;52.536;5.688;2023-04-06T04:42:25;11.15;;;7.47;;
55784;SDS011;41709;52.536;5.688;2023-04-06T04:44:51;11.88;;;7.57;;
55784;SDS011;41709;52.536;5.688;2023-04-06T04:47:17;13.65;;;7.60;;
55784;SDS011;41709;52.536;5.688;2023-04-06T04:49:42;11.48;;;7.95;;
55784;SDS011;41709;52.536;5.688;2023-04-06T04:52:08;16.40;;;9.00;;
55784;SDS011;41709;52.536;5.688;2023-04-06T04:54:33;16.73;;;8.40;;
55784;SDS011;41709;52.536;5.688;2023-04-06T04:56:59;13.48;;;8.43;;
55784;SDS011;41709;52.536;5.688;2023-04-06T04:59:24;12.55;;;8.32;;
55784;SDS011;41709;52.536;5.688;2023-04-06T05:01:50;12.73;;;7.45;;
55784;SDS011;41709;52.536;5.688;2023-04-06T05:04:15;11.10;;;7.88;;
55784;SDS011;41709;52.536;5.688;2023-04-06T05:06:41;14.23;;;8.05;;
55784;SDS011;41709;52.536;5.688;2023-04-06T05:09:06;14.00;;;9.00;;
55784;SDS011;41709;52.536;5.688;2023-04-06T05:11:32;13.25;;;7.75;;
55784;SDS011;41709;52.536;5.688;2023-04-06T05:13:58;12.52;;;7.15;;
55784;SDS011;41709;52.536;5.688;2023-04-06T05:16:24;12.18;;;8.82;;
55784;SDS011;41709;52.536;5.688;2023-04-06T05:18:50;13.07;;;8.35;;
55784;SDS011;41709;52.536;5.688;2023-04-06T05:21:16;18.35;;;8.77;;
55784;SDS011;41709;52.536;5.688;2023-04-06T05:23:41;12.57;;;7.70;;
55784;SDS011;41709;52.536;5.688;2023-04-06T05:26:07;11.82;;;7.90;;
55784;SDS011;41709;52.536;5.688;2023-04-06T05:28:32;11.02;;;7.68;;
55784;SDS011;41709;52.536;5.688;2023-04-06T05:30:58;13.77;;;9.25;;
55784;SDS011;41709;52.536;5.688;2023-04-06T05:33:23;12.88;;;7.53;;
55784;SDS011;41709;52.536;5.688;2023-04-06T05:35:50;12.77;;;8.10;;
55784;SDS011;41709;52.536;5.688;2023-04-06T05:38:15;15.18;;;8.15;;
55784;SDS011;41709;52.536;5.688;2023-04-06T05:40:41;13.25;;;7.88;;
55784;SDS011;41709;52.536;5.688;2023-04-06T05:43:06;13.10;;;7.40;;
55784;SDS011;41709;52.536;5.688;2023-04-06T05:45:32;14.18;;;8.30;;
55784;SDS011;41709;52.536;5.688;2023-04-06T05:47:58;13.27;;;8.50;;
55784;SDS011;41709;52.536;5.688;2023-04-06T05:50:24;16.52;;;9.50;;
55784;SDS011;41709;52.536;5.688;2023-04-06T05:52:49;14.40;;;8.35;;
55784;SDS011;41709;52.536;5.688;2023-04-06T05:55:15;12.18;;;7.65;;
55784;SDS011;41709;52.536;5.688;2023-04-06T05:57:41;13.32;;;8.23;;
55784;SDS011;41709;52.536;5.688;2023-04-06T06:00:06;13.13;;;8.20;;
55784;SDS011;41709;52.536;5.688;2023-04-06T06:02:34;11.50;;;8.13;;
55784;SDS011;41709;52.536;5.688;2023-04-06T06:05:00;16.55;;;9.90;;
55784;SDS011;41709;52.536;5.688;2023-04-06T06:07:26;14.43;;;9.02;;
55784;SDS011;41709;52.536;5.688;2023-04-06T06:09:51;14.25;;;8.60;;
55784;SDS011;41709;52.536;5.688;2023-04-06T06:12:17;11.95;;;8.70;;
55784;SDS011;41709;52.536;5.688;2023-04-06T06:14:42;13.75;;;8.40;;
55784;SDS011;41709;52.536;5.688;2023-04-06T06:17:08;16.20;;;8.98;;
55784;SDS011;41709;52.536;5.688;2023-04-06T06:19:33;15.10;;;9.55;;
55784;SDS011;41709;52.536;5.688;2023-04-06T06:21:59;15.00;;;8.18;;
55784;SDS011;41709;52.536;5.688;2023-04-06T06:24:27;14.55;;;8.25;;
55784;SDS011;41709;52.536;5.688;2023-04-06T06:26:53;17.20;;;9.52;;
55784;SDS011;41709;52.536;5.688;2023-04-06T06:29:18;17.17;;;8.82;;
55784;SDS011;41709;52.536;5.688;2023-04-06T06:31:44;17.60;;;9.35;;
55784;SDS011;41709;52.536;5.688;2023-04-06T06:34:09;17.73;;;9.82;;
55784;SDS011;41709;52.536;5.688;2023-04-06T06:36:35;16.63;;;10.30;;
55784;SDS011;41709;52.536;5.688;2023-04-06T06:39:00;14.05;;;7.97;;
55784;SDS011;41709;52.536;5.688;2023-04-06T06:41:28;13.95;;;8.93;;
55784;SDS011;41709;52.536;5.688;2023-04-06T06:43:54;16.63;;;9.25;;
55784;SDS011;41709;52.536;5.688;2023-04-06T06:46:20;15.65;;;9.65;;
55784;SDS011;41709;52.536;5.688;2023-04-06T06:48:46;14.18;;;8.98;;
55784;SDS011;41709;52.536;5.688;2023-04-06T06:51:11;15.45;;;9.43;;
55784;SDS011;41709;52.536;5.688;2023-04-06T06:53:37;18.67;;;9.55;;
55784;SDS011;41709;52.536;5.688;2023-04-06T06:56:03;18.73;;;9.15;;
55784;SDS011;41709;52.536;5.688;2023-04-06T06:58:28;20.92;;;10.20;;
55784;SDS011;41709;52.536;5.688;2023-04-06T07:00:57;14.82;;;9.52;;
55784;SDS011;41709;52.536;5.688;2023-04-06T07:03:23;16.45;;;10.25;;
55784;SDS011;41709;52.536;5.688;2023-04-06T07:05:49;15.10;;;9.23;;
55784;SDS011;41709;52.536;5.688;2023-04-06T07:08:18;15.13;;;9.35;;
55784;SDS011;41709;52.536;5.688;2023-04-06T07:10:44;13.75;;;9.55;;
55784;SDS011;41709;52.536;5.688;2023-04-06T07:13:10;16.45;;;10.00;;
55784;SDS011;41709;52.536;5.688;2023-04-06T07:15:36;18.38;;;9.65;;
55784;SDS011;41709;52.536;5.688;2023-04-06T07:18:02;17.08;;;10.27;;
55784;SDS011;41709;52.536;5.688;2023-04-06T07:20:27;16.30;;;10.20;;
55784;SDS011;41709;52.536;5.688;2023-04-06T07:22:53;15.05;;;9.95;;
55784;SDS011;41709;52.536;5.688;2023-04-06T07:25:19;16.63;;;9.80;;
55784;SDS011;41709;52.536;5.688;2023-04-06T07:27:44;14.43;;;10.52;;
55784;SDS011;41709;52.536;5.688;2023-04-06T07:30:10;49.95;;;11.77;;
55784;SDS011;41709;52.536;5.688;2023-04-06T07:32:36;19.02;;;9.82;;
55784;SDS011;41709;52.536;5.688;2023-04-06T07:35:01;14.70;;;10.38;;
55784;SDS011;41709;52.536;5.688;2023-04-06T07:37:27;21.20;;;9.82;;
55784;SDS011;41709;52.536;5.688;2023-04-06T07:39:53;21.25;;;10.48;;
55784;SDS011;41709;52.536;5.688;2023-04-06T07:42:18;15.32;;;10.27;;
55784;SDS011;41709;52.536;5.688;2023-04-06T07:44:44;16.08;;;10.68;;
55784;SDS011;41709;52.536;5.688;2023-04-06T07:47:10;24.33;;;10.05;;
55784;SDS011;41709;52.536;5.688;2023-04-06T07:49:35;15.82;;;10.43;;
55784;SDS011;41709;52.536;5.688;2023-04-06T07:52:01;18.13;;;9.65;;
55784;SDS011;41709;52.536;5.688;2023-04-06T07:54:27;17.45;;;11.40;;
55784;SDS011;41709;52.536;5.688;2023-04-06T07:56:53;16.38;;;10.95;;
55784;SDS011;41709;52.536;5.688;2023-04-06T07:59:19;16.25;;;10.90;;
55784;SDS011;41709;52.536;5.688;2023-04-06T08:01:45;15.98;;;10.32;;
55784;SDS011;41709;52.536;5.688;2023-04-06T08:04:10;15.13;;;10.13;;
55784;SDS011;41709;52.536;5.688;2023-04-06T08:06:36;16.15;;;10.48;;
55784;SDS011;41709;52.536;5.688;2023-04-06T08:09:03;17.00;;;9.95;;
55784;SDS011;41709;52.536;5.688;2023-04-06T08:11:29;20.30;;;10.27;;
55784;SDS011;41709;52.536;5.688;2023-04-06T08:13:54;17.08;;;10.43;;
55784;SDS011;41709;52.536;5.688;2023-04-06T08:16:21;15.43;;;9.80;;
55784;SDS011;41709;52.536;5.688;2023-04-06T08:18:47;16.23;;;10.73;;
55784;SDS011;41709;52.536;5.688;2023-04-06T08:21:13;15.23;;;11.13;;
55784;SDS011;41709;52.536;5.688;2023-04-06T08:23:38;19.25;;;11.10;;
55784;SDS011;41709;52.536;5.688;2023-04-06T08:26:04;18.05;;;11.00;;
55784;SDS011;41709;52.536;5.688;2023-04-06T08:28:29;19.67;;;10.65;;
55784;SDS011;41709;52.536;5.688;2023-04-06T08:30:55;18.60;;;10.88;;
55784;SDS011;41709;52.536;5.688;2023-04-06T08:33:20;33.70;;;11.32;;
55784;SDS011;41709;52.536;5.688;2023-04-06T08:35:46;22.48;;;10.95;;
55784;SDS011;41709;52.536;5.688;2023-04-06T08:38:12;18.65;;;10.57;;
55784;SDS011;41709;52.536;5.688;2023-04-06T08:40:37;20.23;;;10.05;;
55784;SDS011;41709;52.536;5.688;2023-04-06T08:43:03;26.02;;;11.73;;
55784;SDS011;41709;52.536;5.688;2023-04-06T08:45:34;22.27;;;11.02;;
55784;SDS011;41709;52.536;5.688;2023-04-06T08:48:00;22.58;;;11.63;;
55784;SDS011;41709;52.536;5.688;2023-04-06T08:50:27;22.83;;;11.52;;
55784;SDS011;41709;52.536;5.688;2023-04-06T08:52:54;22.70;;;11.45;;
55784;SDS011;41709;52.536;5.688;2023-04-06T08:55:20;22.50;;;11.93;;
55784;SDS011;41709;52.536;5.688;2023-04-06T08:57:47;22.52;;;11.00;;
55784;SDS011;41709;52.536;5.688;2023-04-06T09:00:14;20.25;;;12.15;;
55784;SDS011;41709;52.536;5.688;2023-04-06T09:02:42;20.35;;;11.57;;
55784;SDS011;41709;52.536;5.688;2023-04-06T09:05:10;20.45;;;11.13;;
55784;SDS011;41709;52.536;5.688;2023-04-06T09:07:36;22.73;;;12.77;;
55784;SDS011;41709;52.536;5.688;2023-04-06T09:10:02;30.58;;;13.05;;
55784;SDS011;41709;52.536;5.688;2023-04-06T09:12:30;24.17;;;12.40;;
55784;SDS011;41709;52.536;5.688;2023-04-06T09:14:57;32.55;;;13.07;;
55784;SDS011;41709;52.536;5.688;2023-04-06T09:17:24;22.60;;;13.00;;
55784;SDS011;41709;52.536;5.688;2023-04-06T09:20:02;23.60;;;13.77;;
55784;SDS011;41709;52.536;5.688;2023-04-06T09:22:35;19.88;;;12.77;;
55784;SDS011;41709;52.536;5.688;2023-04-06T09:25:02;23.65;;;13.48;;
55784;SDS011;41709;52.536;5.688;2023-04-06T09:27:35;21.67;;;12.93;;
55784;SDS011;41709;52.536;5.688;2023-04-06T09:35:16;21.98;;;13.95;;
55784;SDS011;41709;52.536;5.688;2023-04-06T09:37:43;25.40;;;13.82;;
55784;SDS011;41709;52.536;5.688;2023-04-06T09:40:09;30.02;;;15.15;;
55784;SDS011;41709;52.536;5.688;2023-04-06T09:42:35;25.95;;;14.10;;
55784;SDS011;41709;52.536;5.688;2023-04-06T09:45:01;27.10;;;15.23;;
55784;SDS011;41709;52.536;5.688;2023-04-06T09:47:28;25.15;;;15.55;;
55784;SDS011;41709;52.536;5.688;2023-04-06T09:49:56;27.48;;;15.23;;
55784;SDS011;41709;52.536;5.688;2023-04-06T09:52:24;34.13;;;19.17;;
55784;SDS011;41709;52.536;5.688;2023-04-06T09:55:12;31.33;;;15.95;;
55784;SDS011;41709;52.536;5.688;2023-04-06T09:57:52;29.75;;;16.75;;
55784;SDS011;41709;52.536;5.688;2023-04-06T10:00:25;29.02;;;16.73;;
55784;SDS011;41709;52.536;5.688;2023-04-06T10:07:56;27.60;;;16.08;;
55784;SDS011;41709;52.536;5.688;2023-04-06T10:10:24;28.30;;;14.63;;
55784;SDS011;41709;52.536;5.688;2023-04-06T10:12:49;27.85;;;14.35;;
55784;SDS011;41709;52.536;5.688;2023-04-06T10:15:15;27.08;;;14.77;;
55784;SDS011;41709;52.536;5.688;2023-04-06T10:17:41;30.27;;;14.77;;
55784;SDS011;41709;52.536;5.688;2023-04-06T10:20:09;27.25;;;15.73;;
55784;SDS011;41709;52.536;5.688;2023-04-06T10:23:04;30.08;;;16.30;;
55784;SDS011;41709;52.536;5.688;2023-04-06T10:25:51;30.65;;;17.02;;
55784;SDS011;41709;52.536;5.688;2023-04-06T10:28:20;24.38;;;14.18;;
55784;SDS011;41709;52.536;5.688;2023-04-06T10:30:46;31.95;;;16.65;;
55784;SDS011;41709;52.536;5.688;2023-04-06T10:33:15;24.17;;;14.43;;
55784;SDS011;41709;52.536;5.688;2023-04-06T10:35:42;32.13;;;15.75;;
55784;SDS011;41709;52.536;5.688;2023-04-06T10:38:09;23.50;;;14.32;;
55784;SDS011;41709;52.536;5.688;2023-04-06T10:40:38;22.50;;;13.32;;
55784;SDS011;41709;52.536;5.688;2023-04-06T10:45:43;23.38;;;13.98;;
55784;SDS011;41709;52.536;5.688;2023-04-06T10:48:15;19.80;;;12.57;;
55784;SDS011;41709;52.536;5.688;2023-04-06T10:50:49;21.13;;;12.75;;
55784;SDS011;41709;52.536;5.688;2023-04-06T10:53:22;28.45;;;13.05;;
55784;SDS011;41709;52.536;5.688;2023-04-06T10:55:52;23.98;;;13.98;;
55784;SDS011;41709;52.536;5.688;2023-04-06T10:58:24;18.95;;;12.88;;
55784;SDS011;41709;52.536;5.688;2023-04-06T11:00:50;22.50;;;13.25;;
55784;SDS011;41709;52.536;5.688;2023-04-06T11:03:16;19.27;;;12.43;;
55784;SDS011;41709;52.536;5.688;2023-04-06T11:05:43;19.65;;;12.90;;
55784;SDS011;41709;52.536;5.688;2023-04-06T11:10:47;18.20;;;12.60;;
55784;SDS011;41709;52.536;5.688;2023-04-06T11:13:14;23.20;;;14.48;;
55784;SDS011;41709;52.536;5.688;2023-04-06T11:15:40;18.13;;;12.52;;
55784;SDS011;41709;52.536;5.688;2023-04-06T11:18:05;20.02;;;12.60;;
55784;SDS011;41709;52.536;5.688;2023-04-06T11:20:31;21.23;;;12.15;;
55784;SDS011;41709;52.536;5.688;2023-04-06T11:22:56;18.58;;;12.32;;
55784;SDS011;41709;52.536;5.688;2023-04-06T11:25:24;21.40;;;13.40;;
55784;SDS011;41709;52.536;5.688;2023-04-06T11:27:51;22.08;;;13.25;;
55784;SDS011;41709;52.536;5.688;2023-04-06T11:30:16;22.83;;;12.57;;
55784;SDS011;41709;52.536;5.688;2023-04-06T11:32:43;18.23;;;10.85;;
55784;SDS011;41709;52.536;5.688;2023-04-06T11:35:10;24.05;;;13.85;;
55784;SDS011;41709;52.536;5.688;2023-04-06T11:37:44;21.67;;;12.05;;
55784;SDS011;41709;52.536;5.688;2023-04-06T11:40:09;16.42;;;11.05;;
55784;SDS011;41709;52.536;5.688;2023-04-06T11:42:35;18.02;;;11.10;;
55784;SDS011;41709;52.536;5.688;2023-04-06T11:45:01;23.67;;;11.80;;
55784;SDS011;41709;52.536;5.688;2023-04-06T11:47:30;17.08;;;10.60;;
55784;SDS011;41709;52.536;5.688;2023-04-06T11:50:06;15.77;;;9.88;;
55784;SDS011;41709;52.536;5.688;2023-04-06T11:52:39;17.80;;;10.77;;
55784;SDS011;41709;52.536;5.688;2023-04-06T11:55:15;15.50;;;10.23;;
55784;SDS011;41709;52.536;5.688;2023-04-06T11:57:43;16.25;;;11.25;;
55784;SDS011;41709;52.536;5.688;2023-04-06T12:00:10;17.95;;;10.02;;
55784;SDS011;41709;52.536;5.688;2023-04-06T12:02:36;18.75;;;9.93;;
55784;SDS011;41709;52.536;5.688;2023-04-06T12:05:03;14.15;;;9.60;;
55784;SDS011;41709;52.536;5.688;2023-04-06T12:07:30;18.00;;;10.30;;
55784;SDS011;41709;52.536;5.688;2023-04-06T12:09:56;14.77;;;9.60;;
55784;SDS011;41709;52.536;5.688;2023-04-06T12:12:21;14.40;;;8.35;;
55784;SDS011;41709;52.536;5.688;2023-04-06T12:14:47;13.88;;;9.55;;
55784;SDS011;41709;52.536;5.688;2023-04-06T12:17:12;16.45;;;9.50;;
55784;SDS011;41709;52.536;5.688;2023-04-06T12:19:38;16.98;;;8.85;;
55784;SDS011;41709;52.536;5.688;2023-04-06T12:22:03;14.07;;;8.45;;
55784;SDS011;41709;52.536;5.688;2023-04-06T12:24:30;12.20;;;8.45;;
55784;SDS011;41709;52.536;5.688;2023-04-06T12:26:55;13.00;;;8.55;;
55784;SDS011;41709;52.536;5.688;2023-04-06T12:29:22;12.27;;;8.73;;
55784;SDS011;41709;52.536;5.688;2023-04-06T12:31:48;14.98;;;8.60;;
55784;SDS011;41709;52.536;5.688;2023-04-06T12:34:14;14.18;;;9.20;;
55784;SDS011;41709;52.536;5.688;2023-04-06T12:36:39;11.77;;;8.95;;
55784;SDS011;41709;52.536;5.688;2023-04-06T12:39:05;9.02;;;7.05;;
55784;SDS011;41709;52.536;5.688;2023-04-06T12:41:31;8.95;;;6.60;;
55784;SDS011;41709;52.536;5.688;2023-04-06T12:43:57;8.48;;;5.93;;
55784;SDS011;41709;52.536;5.688;2023-04-06T12:46:24;7.90;;;5.95;;
55784;SDS011;41709;52.536;5.688;2023-04-06T12:48:50;10.18;;;5.38;;
55784;SDS011;41709;52.536;5.688;2023-04-06T12:51:18;8.30;;;5.85;;
55784;SDS011;41709;52.536;5.688;2023-04-06T12:53:44;10.38;;;5.72;;
55784;SDS011;41709;52.536;5.688;2023-04-06T12:56:14;7.97;;;5.65;;
55784;SDS011;41709;52.536;5.688;2023-04-06T12:58:42;12.65;;;6.05;;
55784;SDS011;41709;52.536;5.688;2023-04-06T13:01:08;8.23;;;6.03;;
55784;SDS011;41709;52.536;5.688;2023-04-06T13:03:34;9.70;;;6.80;;
55784;SDS011;41709;52.536;5.688;2023-04-06T13:06:00;10.90;;;6.85;;
55784;SDS011;41709;52.536;5.688;2023-04-06T13:08:26;10.65;;;7.45;;
55784;SDS011;41709;52.536;5.688;2023-04-06T13:10:55;11.25;;;7.32;;
55784;SDS011;41709;52.536;5.688;2023-04-06T13:13:25;9.25;;;6.93;;
55784;SDS011;41709;52.536;5.688;2023-04-06T13:15:51;10.73;;;6.90;;
55784;SDS011;41709;52.536;5.688;2023-04-06T13:18:18;11.07;;;7.03;;
55784;SDS011;41709;52.536;5.688;2023-04-06T13:20:44;11.18;;;7.65;;
55784;SDS011;41709;52.536;5.688;2023-04-06T13:23:11;11.73;;;7.90;;
55784;SDS011;41709;52.536;5.688;2023-04-06T13:25:36;11.70;;;7.40;;
55784;SDS011;41709;52.536;5.688;2023-04-06T13:28:02;13.18;;;7.90;;
55784;SDS011;41709;52.536;5.688;2023-04-06T13:30:28;11.68;;;7.32;;
55784;SDS011;41709;52.536;5.688;2023-04-06T13:32:53;9.73;;;6.75;;
55784;SDS011;41709;52.536;5.688;2023-04-06T13:35:19;8.07;;;5.90;;
55784;SDS011;41709;52.536;5.688;2023-04-06T13:37:45;9.10;;;6.78;;
55784;SDS011;41709;52.536;5.688;2023-04-06T13:40:10;11.07;;;6.05;;
55784;SDS011;41709;52.536;5.688;2023-04-06T13:42:36;9.77;;;6.38;;
55784;SDS011;41709;52.536;5.688;2023-04-06T13:45:05;8.75;;;6.55;;
55784;SDS011;41709;52.536;5.688;2023-04-06T13:47:30;7.55;;;5.55;;
55784;SDS011;41709;52.536;5.688;2023-04-06T13:49:56;8.70;;;6.05;;
55784;SDS011;41709;52.536;5.688;2023-04-06T13:52:21;13.20;;;6.28;;
55784;SDS011;41709;52.536;5.688;2023-04-06T13:54:48;7.72;;;5.68;;
55784;SDS011;41709;52.536;5.688;2023-04-06T13:57:14;8.02;;;5.10;;
55784;SDS011;41709;52.536;5.688;2023-04-06T13:59:40;7.05;;;5.18;;
55784;SDS011;41709;52.536;5.688;2023-04-06T14:02:07;10.82;;;5.20;;
55784;SDS011;41709;52.536;5.688;2023-04-06T14:04:34;11.48;;;5.43;;
55784;SDS011;41709;52.536;5.688;2023-04-06T14:07:00;8.07;;;4.88;;
55784;SDS011;41709;52.536;5.688;2023-04-06T14:09:27;6.40;;;4.85;;
55784;SDS011;41709;52.536;5.688;2023-04-06T14:11:53;7.10;;;5.07;;
55784;SDS011;41709;52.536;5.688;2023-04-06T14:14:19;6.82;;;4.93;;
55784;SDS011;41709;52.536;5.688;2023-04-06T14:16:45;6.38;;;4.85;;
55784;SDS011;41709;52.536;5.688;2023-04-06T14:19:12;5.95;;;4.75;;
55784;SDS011;41709;52.536;5.688;2023-04-06T14:21:40;7.93;;;5.03;;
55784;SDS011;41709;52.536;5.688;2023-04-06T14:24:06;7.15;;;4.10;;
55784;SDS011;41709;52.536;5.688;2023-04-06T14:26:33;7.82;;;4.60;;
55784;SDS011;41709;52.536;5.688;2023-04-06T14:28:59;6.93;;;5.28;;
55784;SDS011;41709;52.536;5.688;2023-04-06T14:31:26;6.70;;;4.80;;
55784;SDS011;41709;52.536;5.688;2023-04-06T14:33:51;7.30;;;4.88;;
55784;SDS011;41709;52.536;5.688;2023-04-06T14:36:17;6.30;;;4.70;;
55784;SDS011;41709;52.536;5.688;2023-04-06T14:38:43;6.70;;;4.80;;
55784;SDS011;41709;52.536;5.688;2023-04-06T14:41:15;6.82;;;4.80;;
55784;SDS011;41709;52.536;5.688;2023-04-06T14:43:42;6.85;;;4.10;;